createdAt,value
2018-03-22T00:00:49.405Z,2.2
2018-03-22T00:06:16.407Z,2.2
2018-03-22T00:11:44.526Z,2.2
2018-03-22T00:17:11.598Z,2.1
2018-03-22T00:22:39.735Z,2
2018-03-22T00:28:07.818Z,1.8
2018-03-22T00:33:35.842Z,1.7
2018-03-22T00:39:02.944Z,1.7
2018-03-22T00:44:30.967Z,1.7
2018-03-22T00:49:58.047Z,1.8
2018-03-22T00:55:25.110Z,1.8
2018-03-22T01:00:53.240Z,1.7
2018-03-22T01:06:20.422Z,1.7
2018-03-22T01:11:48.272Z,1.6
2018-03-22T01:17:16.348Z,1.5
2018-03-22T01:22:44.420Z,1.4
2018-03-22T01:28:12.404Z,1.3
2018-03-22T01:33:40.434Z,1.2
2018-03-22T01:39:08.562Z,1.1
2018-03-22T01:44:35.503Z,1.2
2018-03-22T01:50:02.619Z,1.2
2018-03-22T01:55:29.518Z,1.3
2018-03-22T02:00:57.538Z,1.4
2018-03-22T02:06:25.612Z,1.5
2018-03-22T02:11:52.621Z,1.5
2018-03-22T02:17:20.697Z,1.6
2018-03-22T02:22:47.872Z,1.6
2018-03-22T02:28:14.806Z,1.7
2018-03-22T02:33:41.886Z,1.7
2018-03-22T02:39:08.905Z,1.7
2018-03-22T02:44:35.930Z,1.7
2018-03-22T02:50:03.990Z,1.8
2018-03-22T02:55:31.100Z,1.9
2018-03-22T03:00:59.499Z,1.9
2018-03-22T03:06:26.219Z,2
2018-03-22T03:11:54.305Z,2.1
2018-03-22T03:17:22.378Z,2.2
2018-03-22T03:22:50.488Z,2.2
2018-03-22T03:28:17.704Z,2.3
2018-03-22T03:33:45.656Z,2.3
2018-03-22T03:39:12.765Z,2.4
2018-03-22T03:44:40.884Z,2.4
2018-03-22T03:50:09.038Z,2.5
2018-03-22T03:55:37.116Z,2.5
2018-03-22T04:01:05.289Z,2.5
2018-03-22T04:06:33.373Z,2.6
2018-03-22T04:12:00.713Z,2.7
2018-03-22T04:17:28.614Z,2.7
2018-03-22T04:22:55.757Z,2.8
2018-03-22T04:28:23.863Z,2.8
2018-03-22T04:33:51.183Z,2.9
2018-03-22T04:39:19.150Z,2.9
2018-03-22T04:44:46.289Z,2.9
2018-03-22T04:50:14.511Z,2.9
2018-03-22T04:55:41.637Z,3
2018-03-22T05:01:08.789Z,3
2018-03-22T05:06:36.956Z,3
2018-03-22T05:12:04.170Z,3
2018-03-22T05:17:31.290Z,3
2018-03-22T05:22:58.462Z,3
2018-03-22T05:28:26.703Z,3.1
2018-03-22T05:33:53.831Z,3.1
2018-03-22T05:39:20.947Z,3.1
2018-03-22T05:44:48.098Z,3.1
2018-03-22T05:50:16.275Z,3.2
2018-03-22T05:55:43.434Z,3.3
2018-03-22T06:01:11.670Z,3.3
2018-03-22T06:06:38.772Z,3.4
2018-03-22T06:12:05.970Z,3.4
2018-03-22T06:17:34.160Z,3.5
2018-03-22T06:23:02.344Z,3.5
2018-03-22T06:28:29.532Z,3.6
2018-03-22T06:33:56.731Z,3.7
2018-03-22T06:39:23.953Z,3.7
2018-03-22T06:44:52.149Z,3.8
2018-03-22T06:50:19.360Z,3.8
2018-03-22T06:55:47.632Z,3.9
2018-03-22T07:01:14.835Z,3.9
2018-03-22T07:06:42.985Z,3.9
2018-03-22T07:12:11.237Z,4
2018-03-22T07:17:38.507Z,4.1
2018-03-22T07:23:06.640Z,4.2
2018-03-22T07:28:34.937Z,4.2
2018-03-22T07:34:03.158Z,4.2
2018-03-22T07:39:30.397Z,4.3
2018-03-22T07:44:57.622Z,4.3
2018-03-22T07:50:24.880Z,4.4
2018-03-22T07:55:52.118Z,4.5
2018-03-22T08:01:20.636Z,4.6
2018-03-22T08:06:47.673Z,4.7
2018-03-22T08:12:14.949Z,4.8
2018-03-22T08:17:42.264Z,4.8
2018-03-22T08:23:10.537Z,4.8
2018-03-22T08:28:39.112Z,4.8
2018-03-22T08:34:06.130Z,4.9
2018-03-22T08:39:34.480Z,4.9
2018-03-22T08:45:02.937Z,4.8
2018-03-22T08:50:30.052Z,4.8
2018-03-22T08:55:58.377Z,4.9
2018-03-22T09:01:26.682Z,5
2018-03-22T09:06:54.941Z,5
2018-03-22T09:12:22.282Z,5.1
2018-03-22T09:17:49.578Z,5.2
2018-03-22T09:23:17.986Z,5.2
2018-03-22T09:28:45.306Z,5.2
2018-03-22T09:34:13.757Z,5.2
2018-03-22T09:39:41.063Z,5.2
2018-03-22T09:45:09.318Z,5.2
2018-03-22T09:50:37.589Z,5.2
2018-03-22T09:56:05.912Z,5.3
2018-03-22T10:01:33.236Z,5.4
2018-03-22T10:07:01.723Z,5.5
2018-03-22T10:12:28.945Z,5.6
2018-03-22T10:17:57.302Z,5.7
2018-03-22T10:23:24.884Z,5.7
2018-03-22T10:28:53.256Z,5.7
2018-03-22T10:34:19.640Z,5.7
2018-03-22T10:39:46.801Z,5.7
2018-03-22T10:45:14.208Z,5.7
2018-03-22T10:50:41.735Z,5.6
2018-03-22T10:56:08.835Z,5.6
2018-03-22T11:01:36.200Z,5.5
2018-03-22T11:07:03.594Z,5.5
2018-03-22T11:12:30.856Z,5.6
2018-03-22T11:17:58.200Z,5.6
2018-03-22T11:23:25.801Z,5.6
2018-03-22T11:28:52.883Z,5.6
2018-03-22T11:34:21.279Z,5.5
2018-03-22T11:39:48.588Z,5.5
2018-03-22T11:45:16.982Z,5.4
2018-03-22T11:50:44.424Z,5.4
2018-03-22T11:56:12.579Z,5.4
2018-03-22T12:01:40.116Z,5.3
2018-03-22T12:07:08.364Z,5.3
2018-03-22T12:12:35.587Z,5.3
2018-03-22T12:18:03.393Z,5.5
2018-03-22T12:23:31.561Z,5.8
2018-03-22T12:28:59.243Z,6
2018-03-22T12:34:25.964Z,6.3
2018-03-22T12:39:53.342Z,6.4
2018-03-22T12:45:20.927Z,6.3
2018-03-22T12:50:50.243Z,6.3
2018-03-22T12:56:18.622Z,6.4
2018-03-22T13:01:45.002Z,6.3
2018-03-22T13:07:12.537Z,6.3
2018-03-22T13:12:40.892Z,6.3
2018-03-22T13:18:08.244Z,6.3
2018-03-22T13:23:36.839Z,6.3
2018-03-22T13:29:05.243Z,6.3
2018-03-22T13:34:33.414Z,6.2
2018-03-22T13:40:00.828Z,6.2
2018-03-22T13:45:28.697Z,6.2
2018-03-22T13:50:55.585Z,6.2
2018-03-22T13:56:23.001Z,6.2
2018-03-22T14:01:52.100Z,6.2
2018-03-22T14:07:19.744Z,6.2
2018-03-22T14:12:47.165Z,6.3
2018-03-22T14:18:15.716Z,6.4
2018-03-22T14:23:42.963Z,6.5
2018-03-22T14:29:11.399Z,6.6
2018-03-22T14:34:38.776Z,6.5
2018-03-22T14:40:06.262Z,6.4
2018-03-22T14:45:34.627Z,6.3
2018-03-22T14:51:02.015Z,6.2
2018-03-22T14:56:29.669Z,6.1
2018-03-22T15:01:57.790Z,6.1
2018-03-22T15:07:26.240Z,6.1
2018-03-22T15:12:53.628Z,6.1
2018-03-22T15:18:20.918Z,6.2
2018-03-22T15:23:48.345Z,6.5
2018-03-22T15:29:15.761Z,6.6
2018-03-22T15:34:44.490Z,6.6
2018-03-22T15:40:11.639Z,6.6
2018-03-22T15:45:40.050Z,6.7
2018-03-22T15:51:07.469Z,6.7
2018-03-22T15:56:34.912Z,6.6
2018-03-22T16:02:02.316Z,6.6
2018-03-22T16:07:31.348Z,6.7
2018-03-22T16:12:58.525Z,6.8
2018-03-22T16:18:25.675Z,6.8
2018-03-22T16:23:53.060Z,6.8
2018-03-22T16:29:21.569Z,6.7
2018-03-22T16:34:49.905Z,6.6
2018-03-22T16:40:18.457Z,6.4
2018-03-22T16:45:46.707Z,6.2
2018-03-22T16:51:14.158Z,6.1
2018-03-22T16:56:41.506Z,5.9
2018-03-22T17:02:08.921Z,5.8
2018-03-22T17:02:09.674Z,5.8
2018-03-22T17:07:36.257Z,5.8
2018-03-22T17:18:30.974Z,5.7
2018-03-22T17:23:58.336Z,5.6
2018-03-22T17:29:26.652Z,5.6
2018-03-22T17:34:53.996Z,5.5
2018-03-22T17:40:21.339Z,5.4
2018-03-22T17:45:49.671Z,5.4
2018-03-22T17:51:18.050Z,5.3
2018-03-22T17:56:46.323Z,5.3
2018-03-22T18:02:14.775Z,5.2
2018-03-22T18:07:41.960Z,5.2
2018-03-22T18:13:10.267Z,5.2
2018-03-22T18:18:37.567Z,5.2
2018-03-22T18:24:04.986Z,5.1
2018-03-22T18:29:33.200Z,5.1
2018-03-22T18:35:00.504Z,5.1
2018-03-22T18:40:27.729Z,5
2018-03-22T18:45:55.104Z,5
2018-03-22T18:51:23.298Z,5
2018-03-22T18:56:51.645Z,5
2018-03-22T19:02:18.923Z,4.9
2018-03-22T19:07:46.156Z,4.8
2018-03-22T19:13:13.475Z,4.8
2018-03-22T19:18:41.834Z,4.8
2018-03-22T19:24:10.013Z,4.8
2018-03-22T19:29:38.239Z,4.8
2018-03-22T19:35:06.563Z,4.7
2018-03-22T19:40:34.767Z,4.7
2018-03-22T19:46:02.059Z,4.6
2018-03-22T19:51:29.312Z,4.6
2018-03-22T19:56:57.554Z,4.5
2018-03-22T20:02:24.849Z,4.5
2018-03-22T20:07:53.047Z,4.5
2018-03-22T20:13:21.253Z,4.5
2018-03-22T20:18:49.578Z,4.4
2018-03-22T20:24:17.794Z,4.3
2018-03-22T20:29:44.985Z,4.3
2018-03-22T20:35:12.227Z,4.2
2018-03-22T20:40:40.468Z,4.2
2018-03-22T20:46:07.637Z,4.2
2018-03-22T20:51:35.833Z,4.2
2018-03-22T20:57:03.053Z,4.1
2018-03-22T21:02:30.259Z,4.1
2018-03-22T21:07:57.440Z,4
2018-03-22T21:13:25.665Z,4.1
2018-03-22T21:18:52.857Z,4.1
2018-03-22T21:24:20.091Z,4.1
2018-03-22T21:29:48.429Z,4.1
2018-03-22T21:35:15.779Z,4.1
2018-03-22T21:40:43.748Z,4.1
2018-03-22T21:46:11.917Z,4.1
2018-03-22T21:51:40.058Z,4
2018-03-22T21:57:07.276Z,4
2018-03-22T22:02:34.536Z,3.9
2018-03-22T22:08:01.713Z,3.9
2018-03-22T22:13:29.905Z,3.9
2018-03-22T22:18:58.135Z,3.9
2018-03-22T22:24:26.262Z,3.8
2018-03-22T22:29:54.482Z,3.7
2018-03-22T22:35:21.691Z,3.7
2018-03-22T22:40:49.801Z,3.6
2018-03-22T22:46:16.966Z,3.6
2018-03-22T22:51:45.127Z,3.4
2018-03-22T22:57:12.284Z,3.3
2018-03-22T23:02:39.392Z,3.3
2018-03-22T23:08:06.529Z,3.3
2018-03-22T23:13:33.694Z,3.3
2018-03-22T23:19:00.793Z,3.2
2018-03-22T23:24:27.942Z,3.2
2018-03-22T23:29:56.083Z,3.3
2018-03-22T23:35:24.193Z,3.2
2018-03-22T23:40:52.326Z,3.1
2018-03-22T23:46:20.473Z,3.1
2018-03-22T23:51:48.565Z,3.1
2018-03-22T23:57:15.691Z,3.1
